Time;durP1;ratioP1;P1;durP2;ratioP2;P2;SDS_P1;SDS_P2;PMS_P1;PMS_P2;Temp;Humidity;BMP_temperature;BMP_pressure;BME280_temperature;BME280_humidity;BME280_pressure;Samples;Min_cycle;Max_cycle;Signal;HPM_P1;HPM_P2
2022/01/28 00:02:41;;;;;;;6.07;4.40;;;3.40;99.90;;;;;;5026305;28;20221;-80
2022/01/28 00:05:14;;;;;;;5.37;4.33;;;3.50;99.90;;;;;;5026531;28;20199;-80
2022/01/28 00:07:47;;;;;;;6.00;4.43;;;3.40;99.90;;;;;;5037149;28;20214;-81
2022/01/28 00:10:18;;;;;;;5.33;4.10;;;3.40;99.90;;;;;;5029401;28;20255;-81
2022/01/28 00:16:09;;;;;;;5.73;3.87;;;3.50;99.90;;;;;;5054593;27;20598;-82
2022/01/28 00:38:05;;;;;;;5.20;4.20;;;3.60;99.90;;;;;;5104320;27;20226;-81
2022/01/28 00:40:35;;;;;;;5.13;4.27;;;3.50;99.90;;;;;;5110493;28;20651;-81
2022/01/28 00:43:04;;;;;;;5.80;4.30;;;3.50;99.90;;;;;;5106235;27;20269;-82
2022/01/28 00:45:31;;;;;;;5.57;4.43;;;3.50;99.90;;;;;;5108477;28;20215;-80
2022/01/28 00:48:00;;;;;;;5.10;4.43;;;3.60;99.90;;;;;;5111203;27;20228;-84
2022/01/28 00:50:27;;;;;;;5.03;4.00;;;3.50;99.90;;;;;;5113148;28;20207;-82
2022/01/28 00:52:54;;;;;;;4.63;3.80;;;3.50;99.90;;;;;;5120878;27;20217;-81
2022/01/28 00:55:23;;;;;;;6.93;3.80;;;3.50;99.90;;;;;;5107801;28;20314;-80
2022/01/28 00:57:50;;;;;;;4.97;4.47;;;3.50;99.90;;;;;;5108437;27;20222;-81
2022/01/28 01:00:18;;;;;;;5.87;4.80;;;3.50;99.90;;;;;;5108746;28;20222;-80
2022/01/28 01:02:45;;;;;;;7.13;5.27;;;3.50;99.90;;;;;;5108321;27;21007;-79
2022/01/28 01:05:18;;;;;;;4.37;3.67;;;3.50;99.90;;;;;;5102981;28;20245;-82
2022/01/28 01:07:45;;;;;;;4.00;3.60;;;3.50;99.90;;;;;;5113655;27;20227;-81
2022/01/28 01:10:15;;;;;;;4.97;4.30;;;3.60;99.90;;;;;;5104812;28;20718;-82
2022/01/28 01:12:45;;;;;;;5.30;3.93;;;3.50;99.90;;;;;;5103403;27;20226;-82
2022/01/28 01:15:16;;;;;;;5.73;4.90;;;3.50;99.90;;;;;;5105133;28;20274;-82
2022/01/28 01:17:52;;;;;;;5.50;4.40;;;3.50;99.90;;;;;;5104485;27;20230;-81
2022/01/28 01:23:10;;;;;;;6.00;4.70;;;3.40;99.90;;;;;;5098236;27;20361;-82
2022/01/28 01:25:46;;;;;;;6.30;4.63;;;3.30;99.90;;;;;;5094726;28;20600;-81
2022/01/28 01:28:14;;;;;;;8.33;5.67;;;3.30;99.90;;;;;;5079396;28;20644;-81
2022/01/28 01:30:43;;;;;;;6.03;4.53;;;3.50;99.90;;;;;;5088510;28;20204;-84
2022/01/28 01:33:11;;;;;;;5.67;4.90;;;3.50;99.90;;;;;;5082614;28;20304;-81
2022/01/28 01:35:41;;;;;;;5.60;4.67;;;3.50;99.90;;;;;;5085411;28;20220;-81
2022/01/28 01:38:10;;;;;;;6.47;5.30;;;3.30;99.90;;;;;;5090081;28;20224;-81
2022/01/28 01:40:44;;;;;;;6.33;4.93;;;3.30;99.90;;;;;;5089414;28;20205;-81
2022/01/28 01:43:16;;;;;;;7.20;5.67;;;3.20;99.90;;;;;;5095716;28;20223;-82
2022/01/28 01:46:01;;;;;;;6.80;5.27;;;3.30;99.90;;;;;;5096780;28;20232;-80
2022/01/28 01:54:00;;;;;;;6.67;5.50;;;3.00;99.90;;;;;;5085827;28;20236;-81
2022/01/28 01:56:29;;;;;;;6.67;5.63;;;2.90;99.90;;;;;;5091623;28;20201;-81
2022/01/28 01:58:57;;;;;;;7.27;5.47;;;2.90;99.90;;;;;;5091180;28;20203;-82
2022/01/28 02:01:24;;;;;;;7.87;6.07;;;2.80;99.90;;;;;;5088776;28;20212;-82
2022/01/28 02:03:51;;;;;;;6.63;5.40;;;2.80;99.90;;;;;;5082223;28;20232;-82
2022/01/28 02:06:21;;;;;;;8.40;5.80;;;2.90;99.90;;;;;;5084213;28;20285;-79
2022/01/28 02:08:49;;;;;;;7.50;5.67;;;2.80;99.90;;;;;;5088733;28;20216;-80
2022/01/28 02:11:16;;;;;;;7.43;5.77;;;2.90;99.90;;;;;;5086442;28;20200;-79
2022/01/28 02:13:48;;;;;;;8.60;5.93;;;2.80;99.90;;;;;;5089017;28;20315;-81
2022/01/28 02:16:15;;;;;;;6.80;5.60;;;2.70;99.90;;;;;;5095806;28;20311;-82
2022/01/28 02:18:42;;;;;;;8.90;5.80;;;2.70;99.90;;;;;;5091769;28;20227;-79
2022/01/28 02:21:14;;;;;;;8.00;5.60;;;2.70;99.90;;;;;;5089224;28;20214;-80
2022/01/28 02:23:42;;;;;;;7.73;5.60;;;2.70;99.90;;;;;;5079010;28;20307;-79
2022/01/28 02:26:14;;;;;;;6.93;5.53;;;2.60;99.80;;;;;;5090595;28;20196;-81
2022/01/28 02:28:42;;;;;;;7.27;5.97;;;2.60;99.90;;;;;;5090047;28;20304;-79
2022/01/28 02:31:09;;;;;;;9.30;6.20;;;2.70;99.90;;;;;;5088481;28;20287;-80
2022/01/28 02:33:36;;;;;;;7.77;6.03;;;2.60;99.70;;;;;;5085899;28;20220;-82
2022/01/28 02:36:06;;;;;;;7.90;5.73;;;2.70;99.90;;;;;;5089640;28;20277;-80
2022/01/28 02:38:35;;;;;;;11.20;6.23;;;2.70;99.90;;;;;;5086240;28;20607;-80
2022/01/28 02:41:04;;;;;;;8.70;6.33;;;2.70;99.80;;;;;;5089979;28;20254;-80
2022/01/28 02:43:38;;;;;;;10.97;6.13;;;2.70;99.80;;;;;;5081263;28;20311;-80
2022/01/28 02:46:09;;;;;;;8.93;6.20;;;2.80;99.80;;;;;;5084933;28;20567;-79
2022/01/28 02:48:39;;;;;;;7.93;5.77;;;2.80;99.80;;;;;;5083564;28;20727;-81
2022/01/28 02:51:12;;;;;;;8.03;5.80;;;2.80;99.80;;;;;;5089968;28;20284;-80
2022/01/28 02:53:43;;;;;;;8.23;5.57;;;2.80;99.80;;;;;;5082203;28;20287;-80
2022/01/28 02:56:18;;;;;;;9.07;6.23;;;2.90;99.80;;;;;;5088664;28;20221;-80
2022/01/28 02:58:46;;;;;;;8.73;5.87;;;2.90;99.80;;;;;;5077215;28;20221;-79
2022/01/28 03:01:15;;;;;;;8.43;5.77;;;3.00;99.70;;;;;;5084038;28;20508;-80
2022/01/28 03:03:44;;;;;;;7.97;5.90;;;3.10;99.20;;;;;;5089967;28;20243;-80
2022/01/28 03:06:12;;;;;;;8.30;5.80;;;3.20;99.00;;;;;;5095590;28;20192;-82
2022/01/28 03:08:45;;;;;;;8.73;5.43;;;3.20;99.00;;;;;;5093889;28;20224;-82
2022/01/28 03:14:21;;;;;;;8.37;5.43;;;3.40;98.30;;;;;;5077951;28;20315;-83
2022/01/28 03:17:11;;;;;;;7.67;5.30;;;3.30;98.50;;;;;;5103052;28;20232;-81
2022/01/28 03:19:48;;;;;;;7.87;5.80;;;3.30;98.30;;;;;;5084994;28;20196;-81
2022/01/28 03:22:16;;;;;;;7.10;5.27;;;3.30;98.20;;;;;;5085122;28;20216;-81
2022/01/28 03:24:48;;;;;;;7.40;5.63;;;3.30;98.50;;;;;;5092590;28;20594;-81
2022/01/28 03:27:24;;;;;;;8.20;6.33;;;3.40;98.80;;;;;;5081262;28;20304;-81
2022/01/28 03:29:51;;;;;;;7.27;5.50;;;3.30;98.50;;;;;;5084449;28;20199;-81
2022/01/28 03:32:18;;;;;;;8.03;5.73;;;3.50;98.50;;;;;;5083888;28;20822;-81
2022/01/28 03:34:45;;;;;;;7.47;5.87;;;3.50;98.10;;;;;;5084539;28;20225;-81
2022/01/28 03:37:12;;;;;;;8.83;5.70;;;3.30;98.40;;;;;;5081436;28;20252;-82
2022/01/28 03:39:39;;;;;;;9.63;5.47;;;3.40;98.30;;;;;;5087394;28;20200;-82
2022/01/28 03:42:08;;;;;;;10.33;5.40;;;3.40;98.50;;;;;;5089462;28;20224;-83
2022/01/28 03:44:37;;;;;;;8.20;5.43;;;3.40;98.10;;;;;;5089605;28;20196;-81
2022/01/28 03:47:05;;;;;;;7.83;5.43;;;3.30;98.30;;;;;;5085152;28;20256;-83
2022/01/28 03:49:31;;;;;;;6.60;4.73;;;3.40;98.70;;;;;;5088224;28;20674;-81
2022/01/28 03:51:58;;;;;;;6.63;5.10;;;3.50;98.20;;;;;;5091964;28;20221;-83
2022/01/28 03:54:26;;;;;;;7.20;5.23;;;3.60;98.10;;;;;;5081886;28;20193;-81
2022/01/28 03:56:53;;;;;;;6.27;4.90;;;3.50;97.70;;;;;;5090212;28;20228;-81
2022/01/28 03:59:22;;;;;;;8.30;5.10;;;3.60;97.80;;;;;;5093816;28;20533;-81
2022/01/28 04:01:50;;;;;;;5.83;4.17;;;3.60;97.70;;;;;;5093218;28;20232;-81
2022/01/28 04:12:37;;;;;;;5.93;4.60;;;3.70;96.90;;;;;;5088178;28;20231;-81
2022/01/28 04:15:21;;;;;;;6.30;4.57;;;3.70;96.40;;;;;;5093185;28;20223;-80
2022/01/28 04:17:49;;;;;;;5.27;4.60;;;3.70;97.00;;;;;;5084629;28;20302;-82
2022/01/28 04:20:16;;;;;;;6.47;4.80;;;3.80;96.40;;;;;;5091351;28;20207;-82
2022/01/28 04:22:43;;;;;;;5.77;4.80;;;3.80;96.40;;;;;;5091490;28;20216;-80
2022/01/28 04:25:11;;;;;;;7.77;4.77;;;3.60;96.60;;;;;;5092370;28;20283;-80
2022/01/28 04:27:38;;;;;;;5.57;4.33;;;3.70;96.50;;;;;;5084457;28;20224;-81
2022/01/28 04:30:08;;;;;;;6.20;4.80;;;3.60;96.70;;;;;;5088764;28;20207;-82
2022/01/28 04:32:37;;;;;;;6.50;4.60;;;3.60;96.90;;;;;;5085461;28;20234;-81
2022/01/28 04:35:05;;;;;;;8.53;4.80;;;3.80;96.70;;;;;;5088806;28;20246;-81
2022/01/28 04:37:40;;;;;;;7.23;4.77;;;3.80;96.40;;;;;;5086616;28;20223;-81
2022/01/28 04:40:13;;;;;;;5.90;4.63;;;3.80;96.70;;;;;;5090938;28;20192;-81
2022/01/28 04:45:30;;;;;;;6.80;4.80;;;3.50;97.30;;;;;;5088062;28;20596;-81
2022/01/28 04:48:07;;;;;;;6.57;4.90;;;3.50;97.60;;;;;;5078409;28;20228;-81
2022/01/28 04:50:44;;;;;;;6.87;4.60;;;3.50;97.50;;;;;;5090288;28;20200;-81
2022/01/28 04:53:24;;;;;;;8.47;4.87;;;3.50;97.70;;;;;;5082149;28;20614;-82
2022/01/28 04:58:45;;;;;;;7.30;5.00;;;3.30;97.90;;;;;;5086136;28;20225;-81
2022/01/28 05:04:08;;;;;;;7.40;4.93;;;3.40;97.90;;;;;;5084545;28;20231;-81
2022/01/28 05:09:47;;;;;;;6.43;5.03;;;3.40;98.10;;;;;;5088155;28;20259;-82
2022/01/28 05:13:01;;;;;;;6.67;4.93;;;3.60;97.40;;;;;;5090959;28;20227;-81
2022/01/28 05:15:51;;;;;;;7.53;4.90;;;3.60;96.90;;;;;;5092942;28;20220;-81
2022/01/28 05:24:13;;;;;;;6.53;4.40;;;3.50;96.70;;;;;;5084256;28;20365;-80
2022/01/28 05:26:51;;;;;;;6.03;4.90;;;3.50;97.30;;;;;;5088332;28;20205;-82
2022/01/28 05:29:18;;;;;;;7.27;4.57;;;3.40;96.90;;;;;;5092556;28;20212;-82
2022/01/28 05:31:46;;;;;;;7.50;5.10;;;3.50;96.60;;;;;;5092970;28;20283;-81
2022/01/28 05:34:15;;;;;;;7.17;5.07;;;3.60;96.90;;;;;;5090123;28;20540;-81
2022/01/28 05:36:42;;;;;;;6.83;5.10;;;3.40;96.60;;;;;;5093500;28;20224;-81
2022/01/28 05:39:09;;;;;;;7.67;5.13;;;3.40;97.00;;;;;;5100437;28;20223;-82
2022/01/28 05:41:36;;;;;;;6.57;4.90;;;3.40;97.00;;;;;;5105769;28;20252;-82
2022/01/28 05:44:03;;;;;;;6.77;4.67;;;3.40;96.70;;;;;;5095544;28;20218;-82
2022/01/28 05:46:32;;;;;;;8.47;4.80;;;3.50;96.70;;;;;;5089599;28;20205;-81
2022/01/28 05:48:59;;;;;;;7.93;4.80;;;3.40;96.70;;;;;;5089898;28;20863;-82
2022/01/28 05:51:28;;;;;;;6.17;4.17;;;3.40;97.10;;;;;;5094651;28;20195;-81
2022/01/28 05:53:57;;;;;;;7.40;4.83;;;3.40;96.90;;;;;;5089734;28;20200;-81
2022/01/28 05:56:25;;;;;;;6.00;4.50;;;3.50;96.60;;;;;;5088747;28;21324;-83
2022/01/28 05:58:52;;;;;;;6.30;4.77;;;3.40;96.90;;;;;;5088127;28;20228;-83
2022/01/28 06:01:20;;;;;;;7.03;4.90;;;3.30;97.20;;;;;;5096782;28;20196;-81
2022/01/28 06:03:57;;;;;;;7.83;5.03;;;3.20;97.50;;;;;;5088843;28;20239;-81
2022/01/28 06:06:24;;;;;;;5.20;4.40;;;3.00;97.60;;;;;;5091534;28;20291;-81
2022/01/28 06:08:56;;;;;;;7.17;5.10;;;3.00;98.60;;;;;;5094130;28;20300;-82
2022/01/28 06:11:25;;;;;;;6.00;5.03;;;3.00;98.40;;;;;;5089939;28;20221;-82
2022/01/28 06:13:54;;;;;;;8.77;5.00;;;2.90;98.40;;;;;;5089091;28;20346;-82
2022/01/28 06:16:21;;;;;;;8.10;4.87;;;3.00;98.40;;;;;;5095971;28;20624;-81
2022/01/28 06:18:48;;;;;;;6.87;4.97;;;3.00;97.80;;;;;;5092398;28;20246;-80
2022/01/28 06:21:18;;;;;;;7.43;4.43;;;3.00;97.90;;;;;;5082598;28;20553;-82
2022/01/28 06:23:45;;;;;;;8.10;5.20;;;3.00;98.00;;;;;;5084287;28;20221;-82
2022/01/28 06:26:25;;;;;;;6.83;4.50;;;3.10;97.30;;;;;;5085581;28;20197;-82
2022/01/28 06:28:53;;;;;;;7.07;4.30;;;3.10;97.30;;;;;;5085921;28;20220;-80
2022/01/28 06:31:20;;;;;;;7.03;4.60;;;3.20;96.70;;;;;;5089530;28;20224;-81
2022/01/28 06:33:47;;;;;;;7.73;5.10;;;3.10;96.40;;;;;;5084636;27;20221;-81
2022/01/28 06:36:15;;;;;;;6.53;5.00;;;3.00;96.90;;;;;;5080018;28;20231;-81
2022/01/28 06:38:42;;;;;;;7.90;4.97;;;2.90;97.00;;;;;;5084613;28;20220;-81
2022/01/28 06:41:17;;;;;;;5.63;4.63;;;2.80;97.20;;;;;;5089557;28;20315;-81
2022/01/28 06:43:46;;;;;;;7.70;4.87;;;2.90;97.10;;;;;;5092811;28;20220;-81
2022/01/28 06:46:13;;;;;;;9.07;5.00;;;2.80;97.20;;;;;;5086002;28;20235;-83
2022/01/28 06:48:46;;;;;;;9.67;5.10;;;2.90;97.30;;;;;;5087114;28;20229;-81
2022/01/28 06:51:13;;;;;;;8.43;5.20;;;2.90;96.90;;;;;;5094664;28;20651;-81
2022/01/28 06:53:40;;;;;;;5.70;4.23;;;3.00;96.80;;;;;;5095584;28;20300;-82
2022/01/28 06:56:07;;;;;;;5.30;4.37;;;3.00;96.60;;;;;;5094885;28;20220;-81
2022/01/28 06:58:34;;;;;;;5.83;4.53;;;3.10;96.70;;;;;;5095633;28;20224;-81
2022/01/28 07:01:03;;;;;;;9.47;4.40;;;3.10;96.30;;;;;;5090040;28;20214;-82
2022/01/28 07:03:30;;;;;;;7.10;4.60;;;3.10;96.40;;;;;;5098137;28;20231;-81
2022/01/28 07:05:56;;;;;;;6.93;4.40;;;3.10;96.40;;;;;;5097078;28;20204;-82
2022/01/28 07:08:27;;;;;;;7.80;4.77;;;3.10;96.60;;;;;;5101158;28;20307;-82
2022/01/28 07:10:54;;;;;;;7.60;5.43;;;3.30;96.60;;;;;;5105277;28;20254;-81
2022/01/28 07:13:21;;;;;;;9.77;5.20;;;3.20;96.10;;;;;;5092685;28;20232;-82
2022/01/28 07:15:51;;;;;;;8.57;5.10;;;3.20;96.40;;;;;;5085987;28;20311;-81
2022/01/28 07:18:20;;;;;;;5.33;4.40;;;3.20;97.10;;;;;;5091075;28;20658;-81
2022/01/28 07:20:47;;;;;;;6.33;4.83;;;3.40;97.30;;;;;;5093869;28;20219;-81
2022/01/28 07:23:14;;;;;;;11.33;4.80;;;3.50;96.70;;;;;;5088266;28;20683;-82
2022/01/28 07:25:41;;;;;;;5.77;4.80;;;3.30;96.80;;;;;;5092478;28;20291;-81
2022/01/28 07:28:08;;;;;;;8.10;4.97;;;3.10;97.00;;;;;;5086974;28;20227;-80
2022/01/28 07:30:36;;;;;;;7.37;4.80;;;2.80;97.60;;;;;;5084418;28;20655;-81
2022/01/28 07:33:06;;;;;;;6.27;4.73;;;2.70;98.10;;;;;;5084603;28;20699;-82
2022/01/28 07:35:35;;;;;;;6.13;4.80;;;2.50;99.00;;;;;;5083581;28;20256;-82
2022/01/28 07:38:02;;;;;;;8.70;5.57;;;2.30;99.50;;;;;;5091412;28;20216;-82
2022/01/28 07:40:29;;;;;;;13.07;5.77;;;2.30;99.70;;;;;;5089067;28;20231;-82
2022/01/28 07:42:55;;;;;;;8.03;6.00;;;2.30;99.90;;;;;;5081835;28;20227;-83
2022/01/28 07:45:22;;;;;;;7.77;6.10;;;2.20;99.90;;;;;;5084697;28;20209;-82
2022/01/28 07:47:49;;;;;;;13.40;6.90;;;2.30;99.90;;;;;;5078844;28;20227;-82
2022/01/28 07:50:17;;;;;;;9.90;6.40;;;2.40;99.90;;;;;;5084135;28;20197;-82
2022/01/28 07:52:45;;;;;;;12.77;6.33;;;2.50;99.90;;;;;;5081229;28;20221;-82
2022/01/28 07:55:14;;;;;;;9.87;6.43;;;2.50;99.90;;;;;;5083416;28;20193;-82
2022/01/28 07:57:42;;;;;;;8.20;5.70;;;2.50;99.90;;;;;;5084753;28;20228;-82
2022/01/28 08:00:10;;;;;;;16.53;6.70;;;2.70;99.90;;;;;;5086262;28;20220;-82
2022/01/28 08:02:37;;;;;;;11.17;6.40;;;2.60;99.70;;;;;;5089495;28;20228;-81
2022/01/28 08:05:05;;;;;;;11.73;5.93;;;2.70;99.60;;;;;;5096872;28;20260;-81
2022/01/28 08:07:32;;;;;;;12.03;5.77;;;2.70;99.60;;;;;;5102605;28;20228;-81
2022/01/28 08:10:00;;;;;;;10.27;5.53;;;2.70;99.80;;;;;;5091229;28;20206;-82
2022/01/28 08:12:27;;;;;;;11.33;6.00;;;2.80;99.10;;;;;;5095097;28;20568;-81
2022/01/28 08:14:54;;;;;;;10.37;5.73;;;2.90;99.20;;;;;;5093217;28;20201;-81
2022/01/28 08:17:21;;;;;;;13.90;6.80;;;3.00;98.60;;;;;;5093989;28;20235;-81
2022/01/28 08:19:48;;;;;;;11.57;5.40;;;3.10;98.40;;;;;;5096682;28;20234;-81
2022/01/28 08:22:15;;;;;;;12.23;5.63;;;3.10;98.20;;;;;;5093510;28;20234;-84
2022/01/28 08:24:45;;;;;;;16.20;5.77;;;3.10;98.40;;;;;;5094787;28;20203;-81
2022/01/28 08:27:14;;;;;;;8.50;5.20;;;3.20;98.30;;;;;;5092530;28;20235;-81
2022/01/28 08:29:45;;;;;;;7.17;4.63;;;3.20;97.70;;;;;;5089117;28;20208;-80
2022/01/28 08:32:12;;;;;;;7.07;4.13;;;3.40;97.60;;;;;;5093431;28;20737;-82
2022/01/28 08:34:41;;;;;;;8.17;4.37;;;3.40;96.70;;;;;;5094506;28;20203;-81
2022/01/28 08:37:08;;;;;;;10.73;4.83;;;3.40;96.20;;;;;;5096797;28;20252;-82
2022/01/28 08:39:35;;;;;;;5.23;4.20;;;3.40;96.30;;;;;;5098299;28;20287;-80
2022/01/28 08:42:02;;;;;;;6.83;4.20;;;3.40;95.90;;;;;;5096693;28;20231;-82
2022/01/28 08:44:35;;;;;;;6.37;4.00;;;3.50;95.40;;;;;;5095691;28;20205;-80
2022/01/28 08:47:01;;;;;;;5.80;4.17;;;3.40;96.10;;;;;;5097751;28;20283;-80
2022/01/28 08:49:28;;;;;;;9.57;4.33;;;3.30;96.30;;;;;;5097885;28;20250;-81
2022/01/28 08:51:55;;;;;;;6.73;4.27;;;3.20;95.90;;;;;;5097214;28;20308;-80
2022/01/28 08:54:27;;;;;;;8.77;4.20;;;3.20;96.20;;;;;;5097699;28;20204;-80
2022/01/28 08:56:54;;;;;;;7.90;4.40;;;3.40;95.70;;;;;;5095748;28;20260;-81
2022/01/28 08:59:21;;;;;;;7.93;4.07;;;3.40;95.60;;;;;;5095064;28;20203;-82
2022/01/28 09:01:50;;;;;;;7.13;4.00;;;3.40;95.10;;;;;;5096580;28;20211;-81
2022/01/28 09:04:17;;;;;;;6.07;4.27;;;3.30;95.10;;;;;;5097506;28;20566;-82
2022/01/28 09:06:45;;;;;;;7.33;4.20;;;3.20;94.70;;;;;;5091156;28;20197;-81
2022/01/28 09:09:13;;;;;;;5.70;4.07;;;3.20;95.00;;;;;;5094260;28;20189;-82
2022/01/28 09:11:53;;;;;;;7.53;4.80;;;3.20;95.60;;;;;;5094611;28;21118;-81
2022/01/28 09:14:21;;;;;;;6.47;4.10;;;3.20;95.80;;;;;;5095416;28;20240;-83
2022/01/28 09:16:52;;;;;;;5.93;4.23;;;3.20;95.40;;;;;;5095633;28;20221;-81
2022/01/28 09:19:19;;;;;;;9.57;3.97;;;3.20;95.50;;;;;;5096313;28;20201;-81
2022/01/28 09:21:46;;;;;;;6.10;4.00;;;3.20;95.90;;;;;;5096720;28;20212;-82
2022/01/28 09:24:13;;;;;;;9.03;4.07;;;3.30;95.60;;;;;;5095017;28;20567;-81
2022/01/28 09:26:40;;;;;;;6.37;4.17;;;3.30;95.50;;;;;;5093382;28;20292;-82
2022/01/28 09:29:07;;;;;;;4.90;3.80;;;3.30;95.50;;;;;;5094996;28;20206;-81
2022/01/28 09:31:34;;;;;;;6.47;4.20;;;3.50;95.70;;;;;;5088734;28;20193;-82
2022/01/28 09:34:03;;;;;;;7.10;4.57;;;3.50;96.10;;;;;;5085791;28;20224;-81
2022/01/28 09:36:30;;;;;;;7.80;4.20;;;3.60;95.50;;;;;;5091869;28;20221;-81
2022/01/28 09:38:57;;;;;;;6.60;3.87;;;3.70;95.30;;;;;;5084181;28;20224;-82
2022/01/28 09:41:24;;;;;;;6.73;3.90;;;3.80;94.80;;;;;;5092634;28;20235;-82
2022/01/28 09:43:52;;;;;;;5.53;4.00;;;3.90;94.80;;;;;;5096945;28;20238;-81
2022/01/28 09:46:21;;;;;;;5.80;3.70;;;4.10;94.50;;;;;;5092509;28;20194;-82
2022/01/28 09:48:48;;;;;;;7.27;4.10;;;4.00;93.60;;;;;;5089733;28;20232;-81
2022/01/28 09:51:17;;;;;;;9.77;3.93;;;4.00;93.90;;;;;;5089778;28;20192;-81
2022/01/28 09:53:43;;;;;;;5.97;4.30;;;4.00;93.30;;;;;;5095587;28;20304;-82
2022/01/28 09:56:10;;;;;;;7.57;4.00;;;4.00;93.40;;;;;;5094693;28;20204;-86
2022/01/28 09:58:38;;;;;;;7.37;4.03;;;3.80;94.00;;;;;;5092082;28;20308;-83
2022/01/28 10:01:05;;;;;;;5.67;3.63;;;3.70;93.80;;;;;;5094385;28;20204;-82
2022/01/28 10:03:35;;;;;;;5.30;3.80;;;3.70;93.80;;;;;;5095363;28;20228;-83
2022/01/28 10:06:03;;;;;;;5.83;3.60;;;3.70;93.90;;;;;;5092006;28;20199;-82
2022/01/28 10:08:32;;;;;;;7.20;3.80;;;3.60;93.70;;;;;;5082558;28;20220;-82
2022/01/28 10:11:02;;;;;;;7.53;3.80;;;3.70;93.60;;;;;;5084989;28;20782;-82
2022/01/28 10:13:37;;;;;;;8.43;4.23;;;3.70;93.60;;;;;;5093075;28;20278;-83
2022/01/28 10:16:12;;;;;;;7.50;4.53;;;3.70;93.40;;;;;;5094734;28;20196;-85
2022/01/28 10:18:51;;;;;;;7.60;4.03;;;3.80;93.80;;;;;;5087416;28;20647;-82
2022/01/28 10:21:21;;;;;;;7.73;3.23;;;3.70;93.70;;;;;;5097131;28;20291;-84
2022/01/28 10:24:16;;;;;;;9.40;4.33;;;3.80;92.90;;;;;;5092281;28;20233;-82
2022/01/28 10:26:46;;;;;;;7.23;3.80;;;3.80;93.20;;;;;;5090465;28;20227;-82
2022/01/28 10:29:18;;;;;;;6.33;4.37;;;3.80;93.10;;;;;;5091195;28;20203;-82
2022/01/28 10:31:52;;;;;;;5.67;3.80;;;3.80;93.00;;;;;;5089297;28;20196;-84
2022/01/28 10:34:29;;;;;;;5.37;3.67;;;3.70;92.40;;;;;;5095655;28;20284;-82
2022/01/28 10:37:17;;;;;;;7.23;3.30;;;3.70;92.90;;;;;;5087719;28;20228;-82
2022/01/28 10:39:48;;;;;;;6.77;3.50;;;3.80;92.40;;;;;;5086510;28;20188;-83
2022/01/28 10:42:21;;;;;;;7.17;3.40;;;3.90;91.80;;;;;;5091553;28;20990;-84
2022/01/28 10:44:58;;;;;;;6.00;3.37;;;3.80;92.40;;;;;;5095519;28;20562;-82
2022/01/28 10:47:34;;;;;;;4.03;3.17;;;3.80;92.70;;;;;;5094480;28;20469;-83
2022/01/28 10:50:02;;;;;;;3.80;3.10;;;3.80;92.20;;;;;;5095206;28;20216;-82
2022/01/28 10:52:33;;;;;;;6.60;3.70;;;3.80;91.80;;;;;;5087896;28;20225;-82
2022/01/28 10:55:02;;;;;;;4.50;3.20;;;3.90;92.20;;;;;;5089433;28;20204;-82
2022/01/28 10:57:31;;;;;;;7.17;3.47;;;3.80;92.10;;;;;;5093851;28;22294;-84
2022/01/28 10:59:59;;;;;;;10.27;4.13;;;3.90;91.90;;;;;;5083698;28;20558;-83
2022/01/28 11:02:27;;;;;;;8.03;3.30;;;4.00;91.70;;;;;;5087114;28;20231;-84
2022/01/28 11:04:57;;;;;;;4.37;3.13;;;4.00;91.80;;;;;;5097860;28;20287;-83
2022/01/28 11:07:24;;;;;;;6.83;3.50;;;3.90;92.20;;;;;;5090198;28;20283;-83
2022/01/28 11:09:51;;;;;;;7.93;3.23;;;4.00;91.60;;;;;;5090746;28;20211;-83
2022/01/28 11:12:20;;;;;;;7.40;3.43;;;4.10;90.90;;;;;;5092424;28;20234;-84
2022/01/28 11:14:47;;;;;;;6.63;3.43;;;4.10;91.10;;;;;;5094119;28;20621;-82
2022/01/28 11:17:16;;;;;;;5.60;2.60;;;4.20;91.30;;;;;;5093819;28;20255;-82
2022/01/28 11:19:44;;;;;;;9.33;3.33;;;4.20;89.30;;;;;;5097397;28;20663;-82
2022/01/28 11:22:29;;;;;;;4.20;2.97;;;4.30;89.20;;;;;;5094195;28;20311;-82
2022/01/28 11:25:36;;;;;;;8.37;3.13;;;4.40;89.70;;;;;;5079487;28;20197;-83
2022/01/28 11:28:11;;;;;;;6.93;2.90;;;4.40;88.60;;;;;;5090746;28;20224;-85
2022/01/28 11:30:46;;;;;;;4.67;2.80;;;4.30;88.50;;;;;;5094594;28;20195;-82
2022/01/28 11:33:15;;;;;;;4.73;3.00;;;4.30;88.50;;;;;;5090940;28;20300;-82
2022/01/28 11:36:01;;;;;;;6.57;3.23;;;4.20;90.10;;;;;;5082513;28;20231;-82
2022/01/28 11:38:44;;;;;;;8.27;3.20;;;4.10;89.60;;;;;;5083546;28;20257;-82
2022/01/28 11:41:15;;;;;;;6.13;2.63;;;4.10;88.40;;;;;;5079477;28;20303;-83
2022/01/28 11:43:49;;;;;;;6.80;2.87;;;4.10;88.50;;;;;;5076485;28;20237;-81
2022/01/28 11:46:22;;;;;;;9.23;2.80;;;4.20;88.50;;;;;;5076789;28;20291;-81
2022/01/28 11:49:22;;;;;;;7.37;2.70;;;4.20;85.90;;;;;;5085982;28;20248;-80
2022/01/28 11:51:49;;;;;;;5.43;2.90;;;4.10;88.00;;;;;;5084633;28;20203;-81
2022/01/28 11:54:20;;;;;;;7.23;3.00;;;4.10;87.60;;;;;;5097572;28;20224;-82
2022/01/28 11:57:13;;;;;;;5.63;3.00;;;4.20;88.50;;;;;;5095643;28;20222;-82
2022/01/28 11:59:42;;;;;;;4.50;2.37;;;4.30;88.50;;;;;;5094316;28;20223;-80
2022/01/28 12:02:15;;;;;;;3.77;2.40;;;4.30;87.00;;;;;;5089128;28;20231;-81
2022/01/28 12:04:44;;;;;;;3.63;2.30;;;4.10;86.50;;;;;;5093880;28;20655;-81
2022/01/28 12:07:15;;;;;;;5.97;2.70;;;4.10;87.50;;;;;;5096217;28;20256;-81
2022/01/28 12:09:44;;;;;;;4.67;2.50;;;4.00;88.30;;;;;;5083576;28;20251;-80
2022/01/28 12:12:13;;;;;;;8.50;3.37;;;4.20;87.10;;;;;;5084871;28;20224;-82
2022/01/28 12:15:14;;;;;;;6.73;2.73;;;4.20;88.50;;;;;;5083511;28;20686;-81
2022/01/28 12:17:47;;;;;;;5.03;2.60;;;4.30;86.30;;;;;;5084844;28;20224;-81
2022/01/28 12:20:37;;;;;;;6.20;2.80;;;4.40;85.40;;;;;;5090883;28;20195;-83
2022/01/28 12:23:24;;;;;;;6.07;2.67;;;4.40;87.10;;;;;;5097983;28;20223;-82
2022/01/28 12:25:56;;;;;;;4.20;2.57;;;4.40;85.70;;;;;;5103247;28;20199;-81
2022/01/28 12:28:27;;;;;;;6.40;2.70;;;4.30;86.50;;;;;;5094637;28;20240;-84
2022/01/28 12:31:01;;;;;;;6.37;2.40;;;4.30;85.00;;;;;;5094738;28;20201;-82
2022/01/28 12:33:30;;;;;;;6.67;2.67;;;4.20;84.50;;;;;;5094151;28;20705;-81
2022/01/28 12:36:00;;;;;;;5.33;2.37;;;4.30;85.50;;;;;;5087752;28;20279;-82
2022/01/28 12:38:31;;;;;;;8.97;2.40;;;4.40;85.40;;;;;;5093642;28;20258;-80
2022/01/28 12:41:06;;;;;;;5.67;2.60;;;4.50;84.70;;;;;;5086820;28;20216;-81
2022/01/28 12:43:34;;;;;;;5.60;2.53;;;4.50;84.70;;;;;;5086922;27;20231;-80
2022/01/28 12:46:06;;;;;;;5.47;2.67;;;4.50;84.70;;;;;;5088654;28;20196;-82
2022/01/28 12:48:33;;;;;;;3.87;2.60;;;4.40;85.80;;;;;;5085171;28;20564;-80
2022/01/28 12:51:02;;;;;;;6.93;3.23;;;4.30;87.10;;;;;;5091557;28;20279;-85
2022/01/28 12:53:31;;;;;;;6.80;3.10;;;4.10;89.30;;;;;;5085105;28;20224;-80
2022/01/28 12:55:59;;;;;;;8.80;2.90;;;4.10;89.20;;;;;;5084997;28;20193;-85
2022/01/28 12:58:37;;;;;;;5.50;3.03;;;4.10;90.70;;;;;;5085508;28;20610;-83
2022/01/28 13:01:12;;;;;;;6.87;3.53;;;4.10;90.50;;;;;;5088670;28;20194;-84
2022/01/28 13:03:48;;;;;;;7.13;3.33;;;4.00;90.70;;;;;;5081285;28;20217;-85
2022/01/28 13:06:22;;;;;;;6.27;3.50;;;3.90;91.30;;;;;;5096131;28;20196;-83
2022/01/28 13:08:50;;;;;;;6.60;3.27;;;3.80;91.80;;;;;;5080987;28;20586;-79
2022/01/28 13:11:18;;;;;;;6.80;3.57;;;3.90;91.90;;;;;;5090783;28;20578;-84
2022/01/28 13:13:53;;;;;;;4.17;3.10;;;4.10;91.80;;;;;;5086798;28;20221;-83
2022/01/28 13:16:42;;;;;;;9.30;4.53;;;4.20;91.40;;;;;;5088695;28;20673;-82
2022/01/28 13:19:12;;;;;;;5.67;3.60;;;4.30;90.40;;;;;;5083635;28;20215;-83
2022/01/28 13:21:40;;;;;;;5.37;3.70;;;4.30;90.60;;;;;;5093200;28;20279;-85
2022/01/28 13:24:12;;;;;;;6.40;3.27;;;4.30;90.30;;;;;;5094422;28;20211;-83
2022/01/28 13:27:03;;;;;;;3.77;2.87;;;4.30;90.40;;;;;;5092746;28;20192;-82
2022/01/28 13:29:36;;;;;;;4.50;3.00;;;4.30;90.20;;;;;;5094518;28;20891;-82
2022/01/28 13:32:07;;;;;;;7.27;3.37;;;4.30;90.30;;;;;;5090800;28;20221;-83
2022/01/28 13:34:47;;;;;;;6.23;3.30;;;4.30;90.50;;;;;;5098236;28;20288;-85
2022/01/28 13:37:15;;;;;;;5.90;2.83;;;4.40;90.20;;;;;;5097231;28;20854;-83
2022/01/28 13:39:43;;;;;;;5.47;3.07;;;4.30;89.80;;;;;;5086937;28;20205;-84
2022/01/28 13:42:13;;;;;;;6.30;2.63;;;4.30;90.30;;;;;;5091190;28;20244;-88
2022/01/28 13:44:48;;;;;;;5.60;2.80;;;4.40;89.60;;;;;;5087166;28;20193;-84
2022/01/28 13:47:18;;;;;;;5.50;2.97;;;4.50;88.70;;;;;;5091609;28;20251;-82
2022/01/28 13:49:47;;;;;;;6.47;2.70;;;4.60;88.70;;;;;;5088038;28;20212;-82
2022/01/28 13:52:22;;;;;;;5.27;2.77;;;4.70;88.80;;;;;;5096514;28;20652;-83
2022/01/28 13:54:50;;;;;;;6.43;2.57;;;4.80;84.60;;;;;;5091527;28;20231;-83
2022/01/28 13:57:17;;;;;;;6.63;2.50;;;4.80;84.50;;;;;;5097224;28;20280;-84
2022/01/28 13:59:44;;;;;;;5.60;2.37;;;4.70;85.90;;;;;;5097509;28;20230;-84
2022/01/28 14:02:18;;;;;;;5.37;2.23;;;4.60;82.70;;;;;;5086676;28;20220;-85
2022/01/28 14:04:46;;;;;;;5.07;2.20;;;4.50;79.80;;;;;;5095738;28;20672;-85
2022/01/28 14:07:19;;;;;;;5.43;2.00;;;4.40;80.10;;;;;;5082139;28;20246;-83
2022/01/28 14:09:49;;;;;;;8.30;2.40;;;4.30;80.00;;;;;;5084208;28;20204;-83
2022/01/28 14:12:38;;;;;;;7.93;2.77;;;4.30;79.70;;;;;;5081931;28;20225;-81
2022/01/28 14:15:13;;;;;;;7.00;2.50;;;4.30;80.20;;;;;;5087021;28;20843;-82